Time;durP1;ratioP1;P1;durP2;ratioP2;P2;SDS_P1;SDS_P2;PMS_P1;PMS_P2;Temp;Humidity;BMP_temperature;BMP_pressure;BME280_temperature;BME280_humidity;BME280_pressure;Samples;Min_cycle;Max_cycle;Signal;HPM_P1;HPM_P2
2023/01/24 00:00:32;;;;;;;114.20;56.50;;;;;;;0.73;100.00;99751.20;109656;1235;59721;-78
2023/01/24 00:03:15;;;;;;;112.30;55.60;;;;;;;0.74;100.00;99749.74;109634;1234;73414;-77
2023/01/24 00:05:43;;;;;;;104.70;56.20;;;;;;;0.71;100.00;99752.77;108823;1235;62003;-78
2023/01/24 00:08:10;;;;;;;99.20;51.80;;;;;;;0.71;100.00;99751.35;110477;1235;72527;-78
2023/01/24 00:10:37;;;;;;;110.80;53.70;;;;;;;0.70;100.00;99750.33;109665;1234;60940;-78
2023/01/24 00:13:03;;;;;;;97.70;49.40;;;;;;;0.69;100.00;99750.19;109355;1235;60103;-76
2023/01/24 00:15:30;;;;;;;88.60;45.90;;;;;;;0.68;100.00;99751.55;108949;1235;59924;-76
2023/01/24 00:17:56;;;;;;;102.60;53.80;;;;;;;0.69;100.00;99752.92;110402;1231;61382;-78
2023/01/24 00:20:23;;;;;;;90.70;48.00;;;;;;;0.70;100.00;99753.52;109265;1234;61338;-78
2023/01/24 00:22:50;;;;;;;91.00;46.60;;;;;;;0.69;100.00;99759.09;109157;1232;60261;-79
2023/01/24 00:25:16;;;;;;;90.60;48.80;;;;;;;0.69;100.00;99757.52;109330;1232;61293;-76
2023/01/24 00:27:43;;;;;;;92.10;47.00;;;;;;;0.70;100.00;99756.16;110163;1232;61197;-76
2023/01/24 00:30:10;;;;;;;92.70;46.20;;;;;;;0.69;100.00;99755.69;109260;1232;61437;-78
2023/01/24 00:32:36;;;;;;;79.10;42.80;;;;;;;0.71;100.00;99758.39;109184;1232;72908;-78
2023/01/24 00:35:03;;;;;;;83.60;41.70;;;;;;;0.71;100.00;99759.59;109134;1234;60788;-78
2023/01/24 00:37:29;;;;;;;86.10;43.50;;;;;;;0.72;100.00;99761.27;109976;1232;59786;-76
2023/01/24 00:39:55;;;;;;;85.90;43.20;;;;;;;0.72;100.00;99764.31;109705;1237;60120;-76
2023/01/24 00:42:22;;;;;;;110.30;56.40;;;;;;;0.71;100.00;99763.12;108963;1236;59819;-78
2023/01/24 00:44:49;;;;;;;95.30;52.60;;;;;;;0.74;100.00;99765.83;108959;1232;72444;-79
2023/01/24 00:47:16;;;;;;;96.50;49.80;;;;;;;0.76;100.00;99766.41;109825;1231;59722;-78
2023/01/24 00:49:42;;;;;;;104.40;52.20;;;;;;;0.79;100.00;99769.73;109958;1231;61104;-78
2023/01/24 00:52:08;;;;;;;96.60;50.90;;;;;;;0.76;100.00;99764.51;109159;1232;61982;-78
2023/01/24 00:54:35;;;;;;;102.60;52.50;;;;;;;0.75;100.00;99763.19;109063;1237;59815;-77
2023/01/24 00:57:01;;;;;;;108.40;56.00;;;;;;;0.76;100.00;99764.84;109235;1232;61024;-78
2023/01/24 00:59:28;;;;;;;98.30;55.80;;;;;;;0.78;100.00;99765.39;109975;1231;60990;-76
2023/01/24 01:01:54;;;;;;;90.50;51.10;;;;;;;0.75;100.00;99767.62;108934;1232;60923;-77
2023/01/24 01:04:21;;;;;;;92.40;49.90;;;;;;;0.76;100.00;99770.02;109187;1235;61348;-78
2023/01/24 01:06:47;;;;;;;99.00;51.80;;;;;;;0.77;100.00;99768.13;108962;1236;71215;-77
2023/01/24 01:09:14;;;;;;;91.80;50.40;;;;;;;0.77;100.00;99763.88;110140;1232;59971;-77
2023/01/24 01:11:41;;;;;;;83.60;46.30;;;;;;;0.78;100.00;99770.87;109090;1234;61214;-77
2023/01/24 01:14:08;;;;;;;90.40;50.60;;;;;;;0.80;100.00;99773.12;109040;1231;61844;-77
2023/01/24 01:16:37;;;;;;;95.70;52.10;;;;;;;0.80;100.00;99772.38;109223;1231;73326;-79
2023/01/24 01:19:04;;;;;;;112.40;57.20;;;;;;;0.79;100.00;99772.39;110468;1234;70947;-76
2023/01/24 01:21:30;;;;;;;104.60;56.20;;;;;;;0.80;100.00;99770.57;108996;1232;72482;-76
2023/01/24 01:23:57;;;;;;;108.20;60.50;;;;;;;0.79;100.00;99769.81;108783;1231;61204;-77
2023/01/24 01:26:23;;;;;;;111.10;61.70;;;;;;;0.80;100.00;99769.98;108984;1231;60770;-79
2023/01/24 01:28:49;;;;;;;118.90;58.90;;;;;;;0.81;100.00;99766.30;110884;1231;59804;-77
2023/01/24 01:31:16;;;;;;;115.90;60.70;;;;;;;0.78;100.00;99764.45;109106;1232;59886;-76
2023/01/24 01:33:43;;;;;;;117.90;66.00;;;;;;;0.77;100.00;99770.29;109441;1232;59807;-79
2023/01/24 01:36:09;;;;;;;115.40;64.40;;;;;;;0.78;100.00;99774.96;108863;1240;59829;-79
2023/01/24 01:38:36;;;;;;;99.00;53.40;;;;;;;0.77;100.00;99776.27;110981;1231;59407;-79
2023/01/24 01:41:04;;;;;;;96.00;50.70;;;;;;;0.76;100.00;99776.77;109052;1235;62130;-79
2023/01/24 01:43:30;;;;;;;116.70;60.80;;;;;;;0.78;100.00;99775.99;109359;1232;69816;-77
2023/01/24 01:46:19;;;;;;;118.40;60.20;;;;;;;0.80;100.00;99777.19;109127;1232;61223;-79
2023/01/24 01:48:47;;;;;;;104.80;60.70;;;;;;;0.78;100.00;99777.80;111329;1232;58980;-78
2023/01/24 01:51:28;;;;;;;112.00;60.30;;;;;;;0.79;100.00;99777.36;109169;1232;60954;-79
2023/01/24 01:54:00;;;;;;;98.80;51.20;;;;;;;0.79;100.00;99777.33;109370;1236;73452;-79
2023/01/24 01:56:31;;;;;;;100.00;53.70;;;;;;;0.80;100.00;99778.66;109234;1237;70605;-76
2023/01/24 01:58:59;;;;;;;102.60;59.50;;;;;;;0.76;100.00;99780.14;110734;1232;71325;-79
2023/01/24 02:01:26;;;;;;;109.30;62.40;;;;;;;0.75;100.00;99777.99;109046;1232;61366;-76
2023/01/24 02:03:58;;;;;;;108.60;60.10;;;;;;;0.78;100.00;99776.60;108928;1236;59935;-76
2023/01/24 02:06:33;;;;;;;96.40;53.80;;;;;;;0.80;100.00;99780.34;108887;1234;73476;-76
2023/01/24 02:08:59;;;;;;;105.80;53.40;;;;;;;0.80;100.00;99781.08;110913;1232;69847;-77
2023/01/24 02:11:38;;;;;;;104.80;52.40;;;;;;;0.76;100.00;99779.77;109023;1235;61327;-79
2023/01/24 02:16:55;;;;;;;107.40;53.70;;;;;;;0.76;100.00;99775.48;109224;1232;59822;-77
2023/01/24 02:19:49;;;;;;;98.20;50.00;;;;;;;0.77;100.00;99773.48;110569;1236;59644;-76
2023/01/24 02:22:27;;;;;;;94.30;48.20;;;;;;;0.78;100.00;99771.39;109092;1232;70452;-79
2023/01/24 02:25:13;;;;;;;87.10;47.30;;;;;;;0.79;100.00;99770.42;108858;1234;72472;-79
2023/01/24 02:27:39;;;;;;;70.90;39.40;;;;;;;0.82;100.00;99769.53;109122;1235;59666;-78
2023/01/24 02:30:06;;;;;;;69.50;39.80;;;;;;;0.83;100.00;99766.31;109213;1232;61086;-76
2023/01/24 02:32:32;;;;;;;74.70;40.80;;;;;;;0.88;100.00;99771.26;108842;1232;73329;-79
2023/01/24 02:34:59;;;;;;;75.50;42.10;;;;;;;0.88;100.00;99769.55;108920;1232;60961;-77
2023/01/24 02:37:25;;;;;;;85.90;43.50;;;;;;;0.88;100.00;99771.22;109374;1231;60965;-77
2023/01/24 02:40:02;;;;;;;44.00;24.20;;;;;;;0.87;100.00;99768.65;109836;1232;59837;-76
2023/01/24 02:42:36;;;;;;;42.10;24.60;;;;;;;0.87;100.00;99764.02;109015;1232;61972;-76
2023/01/24 02:45:29;;;;;;;45.90;26.60;;;;;;;0.91;100.00;99763.50;109112;1233;73459;-76
2023/01/24 02:47:56;;;;;;;54.40;28.30;;;;;;;0.93;100.00;99763.09;110452;1232;70125;-79
2023/01/24 02:50:25;;;;;;;49.60;26.80;;;;;;;0.93;100.00;99763.99;109613;1231;59808;-76
2023/01/24 02:58:05;;;;;;;56.40;31.60;;;;;;;0.91;100.00;99766.52;108921;1234;61834;-77
2023/01/24 02:58:24;;;;;;;59.00;34.90;;;;;;;0.89;100.00;99769.61;110685;1232;74402;-77
2023/01/24 03:00:50;;;;;;;68.00;38.10;;;;;;;0.88;100.00;99769.91;109266;1233;70922;-76
2023/01/24 03:03:16;;;;;;;66.60;36.60;;;;;;;0.86;100.00;99770.86;109015;1232;61972;-79
2023/01/24 03:05:58;;;;;;;68.10;36.20;;;;;;;0.83;100.00;99768.36;109189;1231;60931;-77
2023/01/24 03:08:26;;;;;;;64.20;34.50;;;;;;;0.82;100.00;99769.48;110874;1231;59691;-78
2023/01/24 03:10:53;;;;;;;78.30;39.90;;;;;;;0.83;100.00;99771.12;108991;1232;74386;-77
2023/01/24 03:35:22;;;;;;;64.10;35.90;;;;;;;0.80;100.00;99793.23;109007;1231;61132;-79
2023/01/24 03:40:33;;;;;;;64.60;34.50;;;;;;;0.81;100.00;99796.98;109456;1232;72770;-76
2023/01/24 03:43:00;;;;;;;70.10;37.20;;;;;;;0.83;100.00;99797.85;109163;1232;63822;-77
2023/01/24 03:45:28;;;;;;;57.10;31.40;;;;;;;0.83;100.00;99792.17;108700;1234;59944;-78
2023/01/24 03:47:59;;;;;;;56.90;29.20;;;;;;;0.80;100.00;99790.94;109738;1232;61479;-78
2023/01/24 03:53:12;;;;;;;65.50;34.20;;;;;;;0.79;100.00;99789.11;109163;1232;70817;-78
2023/01/24 03:55:38;;;;;;;67.10;36.40;;;;;;;0.77;100.00;99792.48;108864;1233;59794;-78
2023/01/24 03:58:05;;;;;;;69.50;37.50;;;;;;;0.78;100.00;99795.79;110131;1232;59705;-77
2023/01/24 04:00:31;;;;;;;68.00;36.40;;;;;;;0.81;100.00;99797.20;109530;1232;60547;-79
2023/01/24 04:02:58;;;;;;;65.00;33.70;;;;;;;0.83;100.00;99795.00;109125;1232;74808;-76
2023/01/24 04:05:25;;;;;;;60.20;33.20;;;;;;;0.84;100.00;99797.95;109021;1232;62015;-77
2023/01/24 04:07:52;;;;;;;66.40;36.40;;;;;;;0.83;100.00;99798.25;109758;1232;61121;-76
2023/01/24 04:10:19;;;;;;;62.60;38.00;;;;;;;0.86;100.00;99793.68;109918;1232;61428;-76
2023/01/24 04:12:45;;;;;;;54.10;33.80;;;;;;;0.85;100.00;99788.73;109038;1232;60781;-78
2023/01/24 04:15:20;;;;;;;54.80;30.20;;;;;;;0.83;100.00;99788.23;109040;1232;59978;-76
2023/01/24 04:17:46;;;;;;;51.20;29.90;;;;;;;0.81;100.00;99786.27;110122;1232;69796;-76
2023/01/24 04:20:13;;;;;;;57.70;33.70;;;;;;;0.80;100.00;99787.49;109611;1236;61414;-78
2023/01/24 04:22:40;;;;;;;56.40;31.60;;;;;;;0.81;100.00;99789.72;109321;1237;60609;-76
2023/01/24 04:25:07;;;;;;;58.20;33.70;;;;;;;0.83;100.00;99783.27;108798;1232;62070;-78
2023/01/24 04:27:33;;;;;;;55.50;34.20;;;;;;;0.85;100.00;99785.77;110164;1234;73856;-76
2023/01/24 04:30:00;;;;;;;55.40;33.80;;;;;;;0.85;100.00;99787.84;109865;1232;61849;-76
2023/01/24 04:32:28;;;;;;;54.20;31.40;;;;;;;0.87;100.00;99786.07;108924;1237;59865;-76
2023/01/24 04:34:54;;;;;;;66.10;36.90;;;;;;;0.86;100.00;99783.30;108987;1232;61172;-78
2023/01/24 04:37:21;;;;;;;70.50;36.40;;;;;;;0.86;100.00;99780.34;109555;1232;61325;-78
2023/01/24 04:39:47;;;;;;;77.60;43.70;;;;;;;0.87;100.00;99782.56;109912;1235;59721;-76
2023/01/24 04:42:14;;;;;;;69.10;40.10;;;;;;;0.87;100.00;99779.34;108974;1235;62035;-76
2023/01/24 04:44:40;;;;;;;73.30;33.90;;;;;;;0.84;100.00;99776.02;109047;1236;60168;-78
2023/01/24 04:47:07;;;;;;;64.90;34.70;;;;;;;0.85;100.00;99777.90;109373;1232;59783;-76
2023/01/24 04:49:34;;;;;;;68.10;36.20;;;;;;;0.88;100.00;99785.55;110520;1232;60718;-76
2023/01/24 04:52:00;;;;;;;71.80;41.30;;;;;;;0.90;100.00;99783.08;109232;1237;59817;-76
2023/01/24 04:54:27;;;;;;;71.70;41.10;;;;;;;0.91;100.00;99780.05;108984;1234;72657;-76
2023/01/24 04:56:53;;;;;;;70.30;41.40;;;;;;;0.94;100.00;99782.21;109257;1231;61704;-76
2023/01/24 04:59:19;;;;;;;94.30;41.70;;;;;;;0.95;100.00;99782.42;110331;1232;61732;-78
2023/01/24 05:01:46;;;;;;;83.10;41.70;;;;;;;0.91;100.00;99780.43;108948;1232;62137;-76
2023/01/24 05:04:12;;;;;;;85.70;47.20;;;;;;;0.89;100.00;99778.71;108793;1232;61158;-76
2023/01/24 05:06:39;;;;;;;94.00;44.90;;;;;;;0.89;100.00;99781.79;108975;1231;59774;-78
2023/01/24 05:09:05;;;;;;;91.20;48.00;;;;;;;0.87;100.00;99782.66;111104;1232;59959;-76
2023/01/24 05:11:31;;;;;;;86.00;46.30;;;;;;;0.88;100.00;99786.63;108848;1232;61962;-79
2023/01/24 05:13:58;;;;;;;96.40;49.10;;;;;;;0.90;100.00;99783.41;109039;1232;59911;-78
2023/01/24 05:16:24;;;;;;;80.50;48.00;;;;;;;0.91;100.00;99785.40;108913;1234;62071;-78
2023/01/24 05:18:51;;;;;;;83.30;42.20;;;;;;;0.91;100.00;99784.34;110384;1234;59657;-76
2023/01/24 05:21:18;;;;;;;81.50;40.80;;;;;;;0.90;100.00;99785.51;108703;1234;62017;-78
2023/01/24 05:23:50;;;;;;;83.00;46.40;;;;;;;0.92;100.00;99788.48;108909;1237;61048;-77
2023/01/24 05:26:17;;;;;;;84.60;44.80;;;;;;;0.93;100.00;99790.49;109166;1232;60586;-77
2023/01/24 05:28:44;;;;;;;87.70;49.40;;;;;;;0.94;100.00;99790.20;110234;1231;74407;-76
2023/01/24 05:31:11;;;;;;;91.20;52.70;;;;;;;0.94;100.00;99795.40;108861;1232;69951;-76
2023/01/24 05:33:37;;;;;;;81.90;45.00;;;;;;;0.94;100.00;99796.27;108878;1234;60804;-76
2023/01/24 05:36:05;;;;;;;67.30;38.30;;;;;;;0.91;100.00;99794.64;109003;1233;60908;-76
2023/01/24 05:38:32;;;;;;;70.80;39.10;;;;;;;0.90;100.00;99795.83;111377;1235;60106;-78
2023/01/24 05:41:04;;;;;;;68.30;37.30;;;;;;;0.88;100.00;99798.80;108969;1235;74382;-76
2023/01/24 05:43:30;;;;;;;80.20;42.30;;;;;;;0.88;100.00;99798.20;109156;1232;70838;-76
2023/01/24 05:45:58;;;;;;;67.40;39.30;;;;;;;0.90;100.00;99799.92;108747;1234;61296;-78
2023/01/24 05:48:25;;;;;;;56.70;30.00;;;;;;;0.92;100.00;99797.04;111118;1237;61998;-76
2023/01/24 05:50:58;;;;;;;91.50;47.40;;;;;;;0.94;100.00;99796.69;109217;1234;61952;-76
2023/01/24 05:53:26;;;;;;;91.70;50.60;;;;;;;0.92;100.00;99798.14;109051;1232;64741;-77
2023/01/24 05:56:00;;;;;;;101.00;53.90;;;;;;;0.87;100.00;99805.09;108905;1235;70974;-78
2023/01/24 05:58:27;;;;;;;92.50;51.50;;;;;;;0.86;100.00;99806.83;111248;1232;71353;-78
2023/01/24 06:00:54;;;;;;;80.80;47.20;;;;;;;0.87;100.00;99807.98;109261;1233;59980;-76
2023/01/24 06:03:20;;;;;;;74.30;43.70;;;;;;;0.88;100.00;99809.79;109673;1234;60565;-78
2023/01/24 06:05:48;;;;;;;78.10;43.90;;;;;;;0.88;100.00;99808.19;109799;1232;60017;-78
2023/01/24 06:08:14;;;;;;;74.70;37.20;;;;;;;0.89;100.00;99809.27;110757;1232;70929;-76
2023/01/24 06:10:41;;;;;;;82.70;41.90;;;;;;;0.88;100.00;99808.88;109287;1232;71815;-76
2023/01/24 06:13:07;;;;;;;80.50;42.60;;;;;;;0.89;100.00;99811.11;108723;1234;59889;-76
2023/01/24 06:15:34;;;;;;;85.70;42.20;;;;;;;0.89;100.00;99814.61;108958;1237;62010;-76
2023/01/24 06:18:01;;;;;;;69.20;40.40;;;;;;;0.92;100.00;99819.63;110940;1232;59725;-76
2023/01/24 06:20:27;;;;;;;64.40;38.10;;;;;;;0.95;100.00;99818.45;109666;1232;62088;-76
2023/01/24 06:22:56;;;;;;;75.50;39.50;;;;;;;0.96;100.00;99822.42;108973;1232;72456;-76
2023/01/24 06:25:24;;;;;;;81.30;43.40;;;;;;;0.97;100.00;99825.70;108973;1232;59873;-76
2023/01/24 06:27:50;;;;;;;76.30;42.80;;;;;;;0.93;100.00;99828.46;110664;1232;59981;-78
2023/01/24 06:30:18;;;;;;;81.10;42.30;;;;;;;0.90;100.00;99834.26;109643;1232;73313;-78
2023/01/24 06:33:02;;;;;;;95.40;48.70;;;;;;;0.90;100.00;99835.97;109200;1233;70908;-78
2023/01/24 06:35:57;;;;;;;100.60;46.50;;;;;;;0.88;100.00;99836.64;109142;1232;62754;-78
2023/01/24 06:38:24;;;;;;;99.40;46.40;;;;;;;0.89;100.00;99840.14;110700;1236;60556;-76
2023/01/24 06:40:53;;;;;;;84.50;42.10;;;;;;;0.90;100.00;99843.56;109167;1236;61216;-77
2023/01/24 06:43:20;;;;;;;69.30;36.20;;;;;;;0.93;100.00;99846.20;108923;1232;73685;-76
2023/01/24 06:45:46;;;;;;;69.50;38.40;;;;;;;0.96;100.00;99848.05;109220;1236;69911;-78
2023/01/24 06:48:12;;;;;;;58.90;34.50;;;;;;;0.98;100.00;99849.70;110553;1234;61219;-78
2023/01/24 06:50:39;;;;;;;76.60;36.80;;;;;;;0.99;100.00;99847.66;109383;1236;60728;-78
2023/01/24 06:53:07;;;;;;;50.90;28.90;;;;;;;1.03;100.00;99849.90;108957;1232;61266;-76
2023/01/24 06:55:34;;;;;;;47.60;28.70;;;;;;;1.04;100.00;99848.55;108913;1232;73378;-76
2023/01/24 06:58:01;;;;;;;45.70;24.70;;;;;;;1.08;100.00;99846.95;110465;1232;70088;-76
2023/01/24 07:00:29;;;;;;;34.70;20.60;;;;;;;1.12;100.00;99847.48;109257;1237;72438;-76
2023/01/24 07:03:08;;;;;;;42.60;22.70;;;;;;;1.15;100.00;99850.90;109460;1232;61316;-78
2023/01/24 07:05:35;;;;;;;55.80;28.50;;;;;;;1.19;100.00;99850.02;109213;1231;60100;-78
2023/01/24 07:08:02;;;;;;;51.60;30.10;;;;;;;1.22;100.00;99852.30;110019;1236;65800;-76
2023/01/24 07:10:29;;;;;;;55.50;35.00;;;;;;;1.25;100.00;99850.16;109244;1232;70927;-76
2023/01/24 07:12:55;;;;;;;69.70;38.40;;;;;;;1.29;100.00;99853.04;109474;1232;59914;-76
2023/01/24 07:15:22;;;;;;;90.20;50.10;;;;;;;1.29;100.00;99856.71;109122;1233;62065;-78
2023/01/24 07:17:48;;;;;;;81.60;43.50;;;;;;;1.31;100.00;99857.93;109956;1232;59793;-76
2023/01/24 07:20:15;;;;;;;68.00;40.60;;;;;;;1.31;100.00;99858.23;109939;1236;59711;-76
2023/01/24 07:22:42;;;;;;;63.50;38.90;;;;;;;1.34;100.00;99860.20;109168;1232;70914;-76
2023/01/24 07:25:15;;;;;;;231.70;130.60;;;;;;;1.33;100.00;99860.55;109216;1232;72492;-78
2023/01/24 07:27:42;;;;;;;74.70;46.20;;;;;;;1.31;100.00;99862.20;109759;1233;61115;-78
2023/01/24 07:30:10;;;;;;;121.40;72.60;;;;;;;1.33;100.00;99866.89;109639;1238;61686;-75
2023/01/24 07:32:37;;;;;;;91.40;57.70;;;;;;;1.35;100.00;99864.67;109093;1236;74422;-76
2023/01/24 07:35:04;;;;;;;89.70;58.00;;;;;;;1.40;100.00;99867.02;109258;1234;59816;-76
2023/01/24 07:37:30;;;;;;;91.70;55.20;;;;;;;1.45;100.00;99871.63;109776;1234;72502;-78
2023/01/24 07:39:56;;;;;;;61.80;40.60;;;;;;;1.46;100.00;99872.56;110173;1232;59771;-76
2023/01/24 07:42:23;;;;;;;64.50;39.30;;;;;;;1.49;100.00;99872.91;109432;1233;61975;-78
2023/01/24 07:44:49;;;;;;;117.50;62.00;;;;;;;1.53;100.00;99874.65;109062;1232;61902;-76
2023/01/24 07:47:16;;;;;;;151.20;82.00;;;;;;;1.52;100.00;99876.45;109421;1234;59817;-76
2023/01/24 07:49:42;;;;;;;166.50;85.10;;;;;;;1.56;100.00;99878.69;110085;1234;60716;-76
2023/01/24 07:52:09;;;;;;;64.60;37.30;;;;;;;1.55;100.00;99877.59;109217;1233;60132;-78
2023/01/24 07:54:35;;;;;;;88.20;44.60;;;;;;;1.55;100.00;99881.30;109194;1236;61361;-78
2023/01/24 07:57:01;;;;;;;64.00;32.20;;;;;;;1.57;100.00;99884.86;110031;1232;61277;-76
2023/01/24 07:59:28;;;;;;;113.30;53.40;;;;;;;1.59;100.00;99888.73;111263;1233;59281;-76
2023/01/24 08:01:54;;;;;;;71.50;38.90;;;;;;;1.62;100.00;99888.53;109792;1232;61194;-76
2023/01/24 08:04:21;;;;;;;47.20;25.70;;;;;;;1.62;100.00;99889.60;110195;1234;61328;-78
2023/01/24 08:09:46;;;;;;;;;;;;;;;1.68;100.00;99894.80;111235;1234;73866;-78
2023/01/24 08:12:13;;;;;;;36.80;22.80;;;;;;;1.69;100.00;99898.08;109393;1234;70937;-76
2023/01/24 08:14:39;;;;;;;26.70;16.40;;;;;;;1.68;100.00;99901.73;109433;1235;61303;-79
2023/01/24 08:17:05;;;;;;;39.50;22.90;;;;;;;1.68;100.00;99906.50;109347;1234;61234;-76
2023/01/24 08:19:32;;;;;;;29.40;16.10;;;;;;;1.70;100.00;99908.43;111063;1232;59732;-76
2023/01/24 08:21:58;;;;;;;22.50;13.10;;;;;;;1.60;100.00;99909.59;109045;1232;59854;-78
2023/01/24 08:24:25;;;;;;;28.40;16.70;;;;;;;1.62;100.00;99913.10;109442;1232;61068;-78
2023/01/24 08:26:51;;;;;;;19.50;13.70;;;;;;;1.53;100.00;99915.45;109484;1235;60086;-78
2023/01/24 08:29:18;;;;;;;34.10;20.70;;;;;;;1.52;100.00;99912.30;110588;1237;60957;-78
2023/01/24 09:03:11;;;;;;;42.60;26.50;;;;;;;1.70;100.00;99931.37;108801;1240;238970;-78
2023/01/24 09:05:38;;;;;;;36.50;21.80;;;;;;;1.81;100.00;99932.25;108695;1235;60572;-76
2023/01/24 09:08:05;;;;;;;36.20;19.90;;;;;;;1.91;100.00;99935.63;108748;1235;74136;-78
2023/01/24 09:10:31;;;;;;;42.80;24.00;;;;;;;1.96;100.00;99941.41;109116;1237;70263;-78
2023/01/24 09:12:58;;;;;;;42.80;21.80;;;;;;;2.00;100.00;99940.69;109401;1237;72400;-77
2023/01/24 09:15:24;;;;;;;38.90;21.60;;;;;;;2.05;100.00;99942.09;109129;1238;61863;-77
2023/01/24 09:17:51;;;;;;;45.20;24.40;;;;;;;2.07;100.00;99942.31;109339;1234;59745;-76
2023/01/24 09:20:18;;;;;;;51.20;29.40;;;;;;;2.08;100.00;99937.41;109213;1234;60090;-79
2023/01/24 09:22:44;;;;;;;97.00;47.10;;;;;;;2.08;100.00;99940.64;108931;1234;70777;-76
2023/01/24 09:25:11;;;;;;;47.40;27.50;;;;;;;2.13;100.00;99942.83;108794;1237;61052;-76
2023/01/24 09:27:38;;;;;;;48.40;26.00;;;;;;;2.05;100.00;99940.17;108648;1234;61269;-76
2023/01/24 09:30:05;;;;;;;138.70;68.60;;;;;;;1.97;100.00;99942.08;108923;1237;60063;-76
2023/01/24 09:32:31;;;;;;;97.30;53.60;;;;;;;2.00;100.00;99939.51;110306;1233;74555;-78
2023/01/24 09:34:57;;;;;;;61.40;38.20;;;;;;;1.95;100.00;99937.23;109658;1234;61223;-78
2023/01/24 09:37:24;;;;;;;31.80;20.00;;;;;;;1.93;100.00;99936.02;109066;1237;61207;-78
2023/01/24 09:39:50;;;;;;;40.30;24.60;;;;;;;1.95;100.00;99933.39;108661;1234;60601;-78
2023/01/24 09:42:32;;;;;;;35.60;25.60;;;;;;;1.79;100.00;99927.55;109012;1237;59901;-78
2023/01/24 09:45:14;;;;;;;19.90;13.80;;;;;;;1.87;100.00;99932.38;109007;1234;73470;-76
2023/01/24 09:47:50;;;;;;;25.10;14.20;;;;;;;1.90;100.00;99932.27;108679;1234;70931;-76
2023/01/24 09:50:22;;;;;;;22.90;11.90;;;;;;;1.87;100.00;99928.98;108828;1235;72453;-78
2023/01/24 09:52:52;;;;;;;32.40;17.10;;;;;;;1.90;100.00;99926.08;109191;1236;60937;-76
2023/01/24 09:55:27;;;;;;;57.20;31.20;;;;;;;1.93;100.00;99925.92;109084;1235;60105;-76
2023/01/24 09:58:32;;;;;;;40.10;24.70;;;;;;;1.98;100.00;99926.96;108936;1234;74473;-76
2023/01/24 10:01:05;;;;;;;26.80;13.90;;;;;;;2.03;100.00;99929.92;109130;1238;68826;-76
2023/01/24 10:03:31;;;;;;;23.00;12.50;;;;;;;1.98;100.00;99925.18;109096;1237;71340;-78
2023/01/24 10:06:01;;;;;;;26.50;15.00;;;;;;;2.06;100.00;99923.48;109460;1232;59806;-76
2023/01/24 10:08:39;;;;;;;26.10;15.90;;;;;;;2.12;100.00;99922.43;109454;1232;61325;-78
2023/01/24 10:11:18;;;;;;;27.20;14.10;;;;;;;2.15;100.00;99924.27;109141;1231;74325;-78
2023/01/24 10:14:05;;;;;;;97.30;46.60;;;;;;;2.02;100.00;99924.29;109167;1231;70910;-78
2023/01/24 10:16:59;;;;;;;33.60;18.70;;;;;;;2.05;100.00;99927.25;109080;1234;72444;-77
2023/01/24 10:20:06;;;;;;;19.40;11.50;;;;;;;2.02;100.00;99921.48;109259;1231;61248;-78
2023/01/24 10:22:51;;;;;;;63.10;35.90;;;;;;;1.96;100.00;99923.23;109188;1234;61977;-78
2023/01/24 10:25:30;;;;;;;26.50;15.70;;;;;;;1.96;100.00;99919.48;109826;1237;74406;-78
2023/01/24 10:27:57;;;;;;;;;;;;;;;2.04;100.00;99917.95;109493;1231;69978;-78
2023/01/24 10:30:36;;;;;;;62.00;33.80;;;;;;;2.05;100.00;99914.81;109758;1231;71323;-76
2023/01/24 10:33:04;;;;;;;35.50;20.50;;;;;;;2.05;100.00;99913.44;109711;1237;59797;-76
2023/01/24 10:35:36;;;;;;;45.50;26.10;;;;;;;2.09;100.00;99912.52;109332;1237;61380;-76
2023/01/24 10:38:04;;;;;;;34.50;18.10;;;;;;;2.09;100.00;99912.60;109460;1231;74261;-76
2023/01/24 10:40:30;;;;;;;47.10;30.40;;;;;;;2.11;100.00;99913.69;109138;1241;70487;-78
2023/01/24 10:42:56;;;;;;;24.60;13.40;;;;;;;1.99;100.00;99912.77;109115;1236;61329;-78
2023/01/24 10:45:47;;;;;;;22.50;13.80;;;;;;;1.96;100.00;99906.15;109021;1234;61370;-78
2023/01/24 10:48:19;;;;;;;21.90;11.70;;;;;;;1.91;100.00;99907.45;109115;1236;60125;-78
2023/01/24 10:50:46;;;;;;;21.50;13.80;;;;;;;1.96;100.00;99903.94;109285;1238;74383;-76
2023/01/24 10:53:24;;;;;;;29.60;16.40;;;;;;;2.02;100.00;99903.86;109020;1236;69669;-78
2023/01/24 10:55:58;;;;;;;22.70;13.70;;;;;;;2.09;100.00;99904.52;109217;1236;72413;-78
2023/01/24 10:58:26;;;;;;;23.80;12.70;;;;;;;2.11;100.00;99902.83;108988;1237;61504;-76
2023/01/24 11:00:57;;;;;;;22.50;11.90;;;;;;;2.09;100.00;99901.23;109202;1232;61316;-78
2023/01/24 11:03:26;;;;;;;54.90;30.40;;;;;;;2.16;100.00;99897.16;109206;1232;74447;-77
2023/01/24 11:05:55;;;;;;;41.80;28.20;;;;;;;2.15;100.00;99898.71;109128;1236;71092;-78
2023/01/24 11:08:26;;;;;;;45.40;31.50;;;;;;;2.24;100.00;99902.52;109209;1237;71651;-77
2023/01/24 11:10:54;;;;;;;34.50;22.70;;;;;;;2.25;100.00;99900.58;109077;1232;60106;-78
2023/01/24 11:13:28;;;;;;;27.70;15.90;;;;;;;2.33;100.00;99897.72;109188;1232;59919;-78
2023/01/24 11:16:01;;;;;;;26.30;13.30;;;;;;;2.40;100.00;99897.36;109103;1231;73348;-78
2023/01/24 11:18:28;;;;;;;46.30;24.30;;;;;;;2.32;100.00;99896.27;109163;1237;70926;-78
2023/01/24 11:21:10;;;;;;;31.80;19.30;;;;;;;2.33;100.00;99896.75;109194;1237;71348;-78
2023/01/24 11:23:36;;;;;;;44.90;21.00;;;;;;;2.37;100.00;99893.13;109096;1232;61843;-78
2023/01/24 11:26:04;;;;;;;27.00;16.70;;;;;;;2.39;100.00;99891.08;108983;1237;59880;-78
2023/01/24 11:28:32;;;;;;;19.10;10.70;;;;;;;2.42;100.00;99890.92;109193;1236;74374;-77
2023/01/24 11:31:09;;;;;;;21.50;12.60;;;;;;;2.43;100.00;99889.53;110389;1231;71005;-78
2023/01/24 11:34:14;;;;;;;23.10;15.00;;;;;;;2.30;100.00;99886.79;109248;1237;71457;-78
2023/01/24 11:36:55;;;;;;;26.70;14.10;;;;;;;2.31;100.00;99887.08;109027;1232;62175;-78
2023/01/24 11:39:34;;;;;;;26.60;16.20;;;;;;;2.34;100.00;99884.70;109477;1237;59639;-79
2023/01/24 11:42:30;;;;;;;27.10;16.00;;;;;;;2.30;100.00;99883.64;109665;1231;74441;-77
2023/01/24 11:45:24;;;;;;;26.00;13.10;;;;;;;2.25;100.00;99881.85;109610;1236;70687;-78
2023/01/24 11:48:14;;;;;;;25.10;13.10;;;;;;;2.25;100.00;99878.80;109733;1231;72460;-76
2023/01/24 11:51:03;;;;;;;46.20;23.80;;;;;;;2.33;100.00;99879.34;110076;1237;61194;-76
2023/01/24 11:53:41;;;;;;;48.60;26.10;;;;;;;2.32;100.00;99882.48;109678;1236;60572;-78
2023/01/24 11:56:42;;;;;;;102.20;48.00;;;;;;;2.14;100.00;99881.07;109265;1237;73381;-78
2023/01/24 11:59:23;;;;;;;60.10;31.70;;;;;;;2.11;100.00;99879.23;109499;1236;69820;-76
2023/01/24 12:02:28;;;;;;;37.50;20.00;;;;;;;2.09;100.00;99882.85;109521;1232;72421;-79
2023/01/24 12:05:10;;;;;;;59.50;30.80;;;;;;;2.06;100.00;99882.91;109175;1232;61185;-78
2023/01/24 12:07:54;;;;;;;30.50;16.30;;;;;;;2.09;100.00;99881.77;109228;1232;61988;-77
2023/01/24 12:10:25;;;;;;;25.50;16.10;;;;;;;1.87;100.00;99876.50;109064;1236;74467;-76
2023/01/24 12:13:03;;;;;;;26.80;18.00;;;;;;;1.73;100.00;99875.87;109818;1232;69935;-76
2023/01/24 12:15:51;;;;;;;18.60;10.70;;;;;;;1.84;100.00;99876.76;109448;1232;71772;-77
2023/01/24 12:18:40;;;;;;;29.80;15.10;;;;;;;1.88;100.00;99876.55;109892;1237;60813;-78
2023/01/24 12:21:08;;;;;;;32.50;17.20;;;;;;;1.89;100.00;99872.74;110775;1232;60940;-78
2023/01/24 12:23:50;;;;;;;41.90;20.30;;;;;;;1.99;100.00;99868.15;110497;1232;73894;-76
2023/01/24 12:26:19;;;;;;;48.60;20.70;;;;;;;1.98;100.00;99861.75;109498;1238;69729;-76
2023/01/24 12:29:02;;;;;;;18.80;11.60;;;;;;;2.03;100.00;99859.34;110024;1232;72505;-78
2023/01/24 12:31:37;;;;;;;25.60;15.50;;;;;;;2.03;100.00;99853.11;109687;1232;61264;-76